Time;durP1;ratioP1;P1;durP2;ratioP2;P2;SDS_P1;SDS_P2;PMS_P1;PMS_P2;Temp;Humidity;BMP_temperature;BMP_pressure;BME280_temperature;BME280_humidity;BME280_pressure;Samples;Min_cycle;Max_cycle;Signal;HPM_P1;HPM_P2
2023/04/16 00:01:19;;;;;;;27.57;12.33;;;;;;;;;;5024151;28;20030;-83
2023/04/16 00:03:48;;;;;;;24.10;11.87;;;;;;;;;;5021591;28;20041;-80
2023/04/16 00:06:17;;;;;;;31.90;13.13;;;;;;;;;;5038966;28;20026;-81
2023/04/16 00:08:43;;;;;;;31.10;14.33;;;;;;;;;;5027229;28;20049;-79
2023/04/16 00:11:09;;;;;;;32.07;13.93;;;;;;;;;;5037954;28;20033;-83
2023/04/16 00:13:35;;;;;;;29.60;13.50;;;;;;;;;;5022909;28;20104;-79
2023/04/16 00:16:01;;;;;;;24.63;11.97;;;;;;;;;;5022535;28;20037;-80
2023/04/16 00:18:27;;;;;;;23.50;12.27;;;;;;;;;;5022526;28;20101;-82
2023/04/16 00:20:54;;;;;;;22.03;12.97;;;;;;;;;;5029959;28;20084;-80
2023/04/16 00:23:20;;;;;;;25.30;12.67;;;;;;;;;;5028345;28;20038;-81
2023/04/16 00:25:46;;;;;;;23.70;12.80;;;;;;;;;;5020494;28;20172;-82
2023/04/16 00:28:12;;;;;;;28.60;11.83;;;;;;;;;;5036446;28;20026;-81
2023/04/16 00:30:41;;;;;;;27.60;12.07;;;;;;;;;;5021028;28;20060;-81
2023/04/16 00:33:07;;;;;;;19.43;10.73;;;;;;;;;;5035517;28;20049;-83
2023/04/16 00:35:34;;;;;;;27.90;12.13;;;;;;;;;;5021625;28;20034;-83
2023/04/16 00:38:00;;;;;;;27.83;13.20;;;;;;;;;;5021144;28;20037;-79
2023/04/16 00:40:29;;;;;;;26.67;12.80;;;;;;;;;;5020594;28;20025;-80
2023/04/16 00:42:55;;;;;;;43.97;13.47;;;;;;;;;;5021375;28;20106;-82
2023/04/16 00:45:21;;;;;;;28.87;14.07;;;;;;;;;;5018861;28;20907;-81
2023/04/16 00:47:48;;;;;;;25.13;13.63;;;;;;;;;;5019795;28;20029;-82
2023/04/16 00:50:14;;;;;;;25.97;12.27;;;;;;;;;;5019312;28;20051;-82
2023/04/16 00:52:40;;;;;;;29.57;14.40;;;;;;;;;;5019859;28;20144;-81
2023/04/16 00:55:07;;;;;;;29.90;14.87;;;;;;;;;;5027804;28;20038;-84
2023/04/16 00:57:33;;;;;;;31.30;14.80;;;;;;;;;;5025179;28;20030;-81
2023/04/16 01:00:02;;;;;;;27.87;13.93;;;;;;;;;;5020501;28;20054;-80
2023/04/16 01:02:28;;;;;;;29.60;13.93;;;;;;;;;;5022157;28;20029;-81
2023/04/16 01:04:54;;;;;;;31.40;15.10;;;;;;;;;;5022097;28;20029;-80
2023/04/16 01:07:20;;;;;;;26.63;14.23;;;;;;;;;;5019117;28;20038;-82
2023/04/16 01:09:46;;;;;;;35.50;14.70;;;;;;;;;;5027450;28;20109;-84
2023/04/16 01:12:13;;;;;;;28.10;14.40;;;;;;;;;;5003865;28;20038;-80
2023/04/16 01:14:39;;;;;;;27.60;14.07;;;;;;;;;;4987432;28;20113;-82
2023/04/16 01:17:05;;;;;;;31.80;16.43;;;;;;;;;;4995582;28;20038;-81
2023/04/16 01:19:31;;;;;;;34.87;16.23;;;;;;;;;;4986289;28;20026;-80
2023/04/16 01:21:58;;;;;;;29.03;15.23;;;;;;;;;;5000718;28;20034;-82
2023/04/16 01:24:24;;;;;;;24.73;14.53;;;;;;;;;;4999663;28;20034;-80
2023/04/16 01:26:50;;;;;;;34.37;15.20;;;;;;;;;;4994106;28;20029;-80
2023/04/16 01:29:18;;;;;;;37.63;15.37;;;;;;;;;;5001983;28;20069;-80
2023/04/16 01:31:45;;;;;;;26.37;12.70;;;;;;;;;;5001090;28;20030;-81
2023/04/16 01:34:11;;;;;;;31.17;16.27;;;;;;;;;;5002609;28;20022;-82
2023/04/16 01:36:37;;;;;;;30.43;17.10;;;;;;;;;;5004460;28;20034;-78
2023/04/16 01:39:04;;;;;;;31.73;15.97;;;;;;;;;;4996623;28;20040;-79
2023/04/16 01:41:31;;;;;;;40.57;18.10;;;;;;;;;;4987253;28;20046;-80
2023/04/16 01:43:57;;;;;;;34.77;17.70;;;;;;;;;;4983691;28;20363;-79
2023/04/16 01:46:26;;;;;;;30.73;15.90;;;;;;;;;;5001206;28;20038;-81
2023/04/16 01:48:53;;;;;;;33.47;16.20;;;;;;;;;;4998536;28;20046;-81
2023/04/16 01:51:19;;;;;;;36.63;18.00;;;;;;;;;;4998894;28;20041;-82
2023/04/16 01:53:48;;;;;;;36.47;17.13;;;;;;;;;;4986203;28;20061;-82
2023/04/16 01:56:14;;;;;;;39.07;19.27;;;;;;;;;;4987988;28;20026;-78
2023/04/16 01:58:41;;;;;;;41.47;18.40;;;;;;;;;;4996746;28;20041;-83
2023/04/16 02:01:10;;;;;;;38.63;17.37;;;;;;;;;;4987763;28;20102;-82
2023/04/16 02:03:36;;;;;;;41.30;18.30;;;;;;;;;;4987106;28;20030;-80
2023/04/16 02:06:02;;;;;;;34.97;18.60;;;;;;;;;;4983078;28;20066;-83
2023/04/16 02:08:28;;;;;;;40.43;17.20;;;;;;;;;;5000210;28;20019;-81
2023/04/16 02:10:55;;;;;;;39.50;17.77;;;;;;;;;;5006118;28;20037;-80
2023/04/16 02:13:22;;;;;;;38.17;16.60;;;;;;;;;;5018460;28;20026;-80
2023/04/16 02:15:52;;;;;;;32.10;17.20;;;;;;;;;;5019084;28;20057;-81
2023/04/16 02:18:18;;;;;;;34.03;17.30;;;;;;;;;;5023551;28;20030;-81
2023/04/16 02:20:45;;;;;;;35.90;17.70;;;;;;;;;;5030963;28;20033;-81
2023/04/16 02:23:13;;;;;;;40.97;18.37;;;;;;;;;;5029196;28;20021;-80
2023/04/16 02:25:45;;;;;;;34.17;17.00;;;;;;;;;;5023648;28;20022;-79
2023/04/16 02:28:12;;;;;;;34.67;17.77;;;;;;;;;;5027130;28;20018;-80
2023/04/16 02:30:39;;;;;;;35.03;17.23;;;;;;;;;;5023456;28;20031;-81
2023/04/16 02:33:08;;;;;;;36.07;18.70;;;;;;;;;;5023732;28;20042;-82
2023/04/16 02:35:34;;;;;;;34.37;17.57;;;;;;;;;;5038722;28;20034;-81
2023/04/16 02:38:01;;;;;;;35.67;17.60;;;;;;;;;;5025148;28;20090;-81
2023/04/16 02:40:28;;;;;;;36.43;18.50;;;;;;;;;;5025025;28;20026;-80
2023/04/16 02:42:56;;;;;;;34.60;18.60;;;;;;;;;;5031534;28;20109;-82
2023/04/16 02:45:22;;;;;;;34.30;18.43;;;;;;;;;;5027768;28;20034;-81
2023/04/16 02:47:49;;;;;;;36.93;18.13;;;;;;;;;;5042911;28;20025;-82
2023/04/16 02:50:15;;;;;;;34.97;18.00;;;;;;;;;;5028490;28;20033;-82
2023/04/16 02:52:42;;;;;;;45.40;19.10;;;;;;;;;;5023848;28;20052;-80
2023/04/16 02:55:08;;;;;;;35.93;18.00;;;;;;;;;;5024570;28;20121;-81
2023/04/16 02:57:34;;;;;;;36.13;17.53;;;;;;;;;;5022909;28;20572;-79
2023/04/16 03:00:00;;;;;;;35.23;18.37;;;;;;;;;;5038940;28;20073;-84
2023/04/16 03:02:26;;;;;;;42.53;19.00;;;;;;;;;;5041932;28;20026;-81
2023/04/16 03:04:53;;;;;;;36.03;17.63;;;;;;;;;;5023391;28;20094;-83
2023/04/16 03:07:19;;;;;;;33.83;19.83;;;;;;;;;;5024042;28;20054;-82
2023/04/16 03:09:45;;;;;;;36.63;18.17;;;;;;;;;;5023143;28;20025;-82
2023/04/16 03:12:11;;;;;;;40.90;21.03;;;;;;;;;;5021266;28;20049;-82
2023/04/16 03:14:37;;;;;;;35.40;19.87;;;;;;;;;;5022260;28;20041;-81
2023/04/16 03:17:04;;;;;;;50.60;22.70;;;;;;;;;;5023674;28;20041;-82
2023/04/16 03:19:30;;;;;;;43.73;21.40;;;;;;;;;;5022093;28;20026;-80
2023/04/16 03:21:56;;;;;;;44.50;20.87;;;;;;;;;;5023113;28;20109;-82
2023/04/16 03:24:22;;;;;;;42.40;20.50;;;;;;;;;;5022264;28;20050;-83
2023/04/16 03:26:48;;;;;;;42.43;21.17;;;;;;;;;;5041239;28;20042;-80
2023/04/16 03:29:14;;;;;;;41.80;22.10;;;;;;;;;;5022007;28;20049;-80
2023/04/16 03:31:41;;;;;;;45.90;23.07;;;;;;;;;;5036786;28;20097;-82
2023/04/16 03:34:09;;;;;;;47.00;24.40;;;;;;;;;;5022997;28;20030;-84
2023/04/16 03:36:35;;;;;;;45.53;20.73;;;;;;;;;;5023106;28;20038;-81
2023/04/16 03:39:01;;;;;;;49.27;23.40;;;;;;;;;;5022451;28;20529;-82
2023/04/16 03:41:27;;;;;;;49.90;24.03;;;;;;;;;;5022260;28;20034;-81
2023/04/16 03:43:53;;;;;;;51.80;23.63;;;;;;;;;;5024287;28;20175;-81
2023/04/16 03:46:27;;;;;;;53.13;24.33;;;;;;;;;;5037610;28;20034;-82
2023/04/16 03:48:53;;;;;;;45.03;24.00;;;;;;;;;;5040521;28;20026;-82
2023/04/16 03:51:21;;;;;;;52.97;24.60;;;;;;;;;;5024992;28;20097;-79
2023/04/16 03:53:47;;;;;;;55.97;25.17;;;;;;;;;;5022992;28;20030;-81
2023/04/16 03:56:13;;;;;;;46.23;23.30;;;;;;;;;;5038777;28;20049;-82
2023/04/16 03:58:39;;;;;;;56.43;25.17;;;;;;;;;;5021603;28;21289;-81
2023/04/16 04:01:05;;;;;;;49.17;23.77;;;;;;;;;;5039333;28;20080;-79
2023/04/16 04:03:31;;;;;;;61.47;26.23;;;;;;;;;;5021258;28;20057;-83
2023/04/16 04:05:58;;;;;;;56.63;26.67;;;;;;;;;;5024516;28;20030;-80
2023/04/16 04:08:24;;;;;;;54.00;29.10;;;;;;;;;;5022530;28;20032;-82
2023/04/16 04:10:53;;;;;;;61.73;26.07;;;;;;;;;;5027769;28;20040;-79
2023/04/16 04:13:19;;;;;;;59.10;27.83;;;;;;;;;;5024439;28;20033;-82
2023/04/16 04:15:45;;;;;;;63.70;28.00;;;;;;;;;;5026519;28;20037;-78
2023/04/16 04:18:12;;;;;;;61.93;26.40;;;;;;;;;;5033307;28;20040;-80
2023/04/16 04:20:41;;;;;;;65.10;28.20;;;;;;;;;;5022400;28;20068;-81
2023/04/16 04:23:07;;;;;;;61.53;26.93;;;;;;;;;;5027288;28;20030;-80
2023/04/16 04:25:33;;;;;;;65.57;28.80;;;;;;;;;;5038468;28;20030;-80
2023/04/16 04:27:59;;;;;;;64.70;30.13;;;;;;;;;;5021802;28;20038;-80
2023/04/16 04:30:25;;;;;;;55.87;27.20;;;;;;;;;;5024782;28;20021;-80
2023/04/16 04:32:51;;;;;;;62.87;27.97;;;;;;;;;;5038603;28;20076;-79
2023/04/16 04:35:17;;;;;;;66.80;30.17;;;;;;;;;;5024125;28;20105;-80
2023/04/16 04:37:43;;;;;;;61.27;30.90;;;;;;;;;;5027448;28;20073;-80
2023/04/16 04:40:10;;;;;;;72.63;29.70;;;;;;;;;;5025304;28;20123;-78
2023/04/16 04:42:36;;;;;;;59.57;28.70;;;;;;;;;;5022811;28;20061;-81
2023/04/16 04:45:02;;;;;;;66.13;30.43;;;;;;;;;;5021838;28;20038;-83
2023/04/16 04:47:28;;;;;;;68.90;32.77;;;;;;;;;;5023157;28;20263;-80
2023/04/16 04:49:54;;;;;;;75.30;30.73;;;;;;;;;;5025149;28;20025;-80
2023/04/16 04:52:22;;;;;;;72.00;32.07;;;;;;;;;;5021645;28;20038;-81
2023/04/16 04:54:49;;;;;;;72.70;32.47;;;;;;;;;;5031469;28;20022;-78
2023/04/16 04:57:15;;;;;;;74.63;32.93;;;;;;;;;;5022485;28;20710;-81
2023/04/16 04:59:41;;;;;;;62.47;29.90;;;;;;;;;;5023394;28;20220;-80
2023/04/16 05:02:07;;;;;;;71.93;31.97;;;;;;;;;;5037591;28;20026;-80
2023/04/16 05:04:33;;;;;;;68.53;30.97;;;;;;;;;;5039816;28;21157;-81
2023/04/16 05:07:00;;;;;;;64.03;29.47;;;;;;;;;;5030913;28;20022;-78
2023/04/16 05:09:26;;;;;;;77.03;31.60;;;;;;;;;;5040285;28;20010;-79
2023/04/16 05:11:52;;;;;;;63.13;28.43;;;;;;;;;;5021594;28;20056;-81
2023/04/16 05:14:18;;;;;;;68.17;31.23;;;;;;;;;;5030876;28;20101;-80
2023/04/16 05:16:45;;;;;;;67.43;31.13;;;;;;;;;;5024958;28;20018;-79
2023/04/16 05:19:11;;;;;;;72.17;30.97;;;;;;;;;;5024615;28;20029;-80
2023/04/16 05:21:39;;;;;;;61.97;28.27;;;;;;;;;;5031760;28;20022;-78
2023/04/16 05:24:06;;;;;;;60.73;29.83;;;;;;;;;;5023011;28;20044;-79
2023/04/16 05:26:32;;;;;;;69.53;30.03;;;;;;;;;;5023924;28;20484;-80
2023/04/16 05:29:01;;;;;;;61.10;27.33;;;;;;;;;;5038835;28;20075;-80
2023/04/16 05:31:27;;;;;;;60.93;27.17;;;;;;;;;;5023027;28;20029;-82
2023/04/16 05:33:53;;;;;;;62.00;28.67;;;;;;;;;;5022997;28;20098;-81
2023/04/16 05:36:19;;;;;;;55.53;27.90;;;;;;;;;;5041266;28;20041;-79
2023/04/16 05:38:45;;;;;;;60.40;28.30;;;;;;;;;;5025722;28;20051;-78
2023/04/16 05:41:11;;;;;;;60.33;28.07;;;;;;;;;;5022646;28;20061;-78
2023/04/16 05:43:37;;;;;;;58.63;27.43;;;;;;;;;;5022095;28;20042;-80
2023/04/16 05:46:06;;;;;;;57.23;28.13;;;;;;;;;;5037028;28;20014;-80
2023/04/16 05:48:32;;;;;;;63.90;28.77;;;;;;;;;;5024568;28;20026;-80
2023/04/16 05:51:01;;;;;;;71.20;29.97;;;;;;;;;;5022732;28;20013;-81
2023/04/16 05:53:29;;;;;;;58.00;28.70;;;;;;;;;;5022240;28;20049;-79
2023/04/16 05:56:01;;;;;;;66.40;29.10;;;;;;;;;;5020789;28;20018;-80
2023/04/16 05:58:29;;;;;;;55.60;27.27;;;;;;;;;;5025580;28;20038;-79
2023/04/16 06:00:55;;;;;;;56.03;26.47;;;;;;;;;;5024977;28;20031;-80
2023/04/16 06:03:21;;;;;;;66.73;30.83;;;;;;;;;;5041097;28;20052;-79
2023/04/16 06:05:48;;;;;;;57.40;27.97;;;;;;;;;;5022593;28;20061;-79
2023/04/16 06:08:16;;;;;;;66.13;28.00;;;;;;;;;;5023150;28;20026;-81
2023/04/16 06:10:42;;;;;;;70.40;30.73;;;;;;;;;;5018579;28;20149;-79
2023/04/16 06:13:08;;;;;;;64.23;31.40;;;;;;;;;;4987699;28;20112;-79
2023/04/16 06:15:34;;;;;;;71.03;32.17;;;;;;;;;;4987919;28;20030;-79
2023/04/16 06:18:01;;;;;;;56.70;27.33;;;;;;;;;;5002444;28;20057;-80
2023/04/16 06:20:29;;;;;;;68.50;27.70;;;;;;;;;;4996952;28;20065;-81
2023/04/16 06:22:55;;;;;;;51.07;26.80;;;;;;;;;;5001199;28;20034;-82
2023/04/16 06:25:40;;;;;;;57.20;27.97;;;;;;;;;;5001071;28;20053;-80
2023/04/16 06:28:06;;;;;;;55.40;27.40;;;;;;;;;;4995992;28;20537;-80
2023/04/16 06:30:32;;;;;;;67.47;28.83;;;;;;;;;;5003186;28;20034;-77
2023/04/16 06:33:02;;;;;;;64.70;30.40;;;;;;;;;;4987900;28;20074;-80
2023/04/16 06:35:30;;;;;;;56.67;28.40;;;;;;;;;;5006833;28;21402;-78
2023/04/16 06:37:56;;;;;;;57.10;26.10;;;;;;;;;;5004153;28;20050;-80
2023/04/16 06:40:25;;;;;;;51.63;26.13;;;;;;;;;;5003683;28;20065;-81
2023/04/16 06:42:53;;;;;;;55.57;26.50;;;;;;;;;;4996321;28;20090;-79
2023/04/16 06:45:19;;;;;;;55.07;27.73;;;;;;;;;;4987844;28;20045;-82
2023/04/16 06:47:48;;;;;;;49.77;25.83;;;;;;;;;;4989224;28;20037;-81
2023/04/16 06:50:14;;;;;;;47.00;24.57;;;;;;;;;;5003203;28;20031;-79
2023/04/16 06:52:40;;;;;;;50.60;25.50;;;;;;;;;;5004863;28;20081;-82
2023/04/16 06:55:08;;;;;;;49.37;25.30;;;;;;;;;;4988122;28;20035;-81
2023/04/16 06:57:34;;;;;;;48.50;22.93;;;;;;;;;;5004721;28;20211;-81
2023/04/16 07:00:04;;;;;;;45.80;22.07;;;;;;;;;;5003412;28;20026;-80
2023/04/16 07:02:30;;;;;;;43.63;21.40;;;;;;;;;;5004309;28;20037;-82
2023/04/16 07:04:56;;;;;;;40.63;20.60;;;;;;;;;;5004257;28;20043;-80
2023/04/16 07:07:22;;;;;;;39.40;19.87;;;;;;;;;;4991484;28;20070;-81
2023/04/16 07:09:48;;;;;;;42.00;21.63;;;;;;;;;;5006628;28;20046;-81
2023/04/16 07:12:14;;;;;;;45.97;22.80;;;;;;;;;;5026560;28;20177;-79
2023/04/16 07:14:40;;;;;;;41.77;22.53;;;;;;;;;;5041192;28;20026;-78
2023/04/16 07:17:09;;;;;;;44.30;21.20;;;;;;;;;;5024980;28;20062;-80
2023/04/16 07:19:35;;;;;;;37.43;21.47;;;;;;;;;;5038096;28;20042;-79
2023/04/16 07:22:02;;;;;;;41.80;21.57;;;;;;;;;;5043652;28;20033;-78
2023/04/16 07:24:28;;;;;;;41.77;21.37;;;;;;;;;;5027442;28;20038;-84
2023/04/16 07:26:54;;;;;;;44.90;22.33;;;;;;;;;;5034955;28;20030;-80
2023/04/16 07:29:20;;;;;;;45.73;22.77;;;;;;;;;;5027926;28;20030;-79
2023/04/16 07:31:46;;;;;;;42.10;24.10;;;;;;;;;;5043237;28;20026;-79
2023/04/16 07:34:12;;;;;;;44.07;22.17;;;;;;;;;;5042022;28;20034;-79
2023/04/16 07:36:38;;;;;;;43.37;22.27;;;;;;;;;;5042972;28;20048;-80
2023/04/16 07:39:05;;;;;;;46.00;23.53;;;;;;;;;;5041148;28;20045;-79
2023/04/16 07:41:31;;;;;;;48.00;25.47;;;;;;;;;;5042194;28;20101;-82
2023/04/16 07:43:57;;;;;;;48.00;26.03;;;;;;;;;;5028774;28;20018;-79
2023/04/16 07:46:25;;;;;;;51.93;25.03;;;;;;;;;;5026494;28;20033;-78
2023/04/16 07:48:51;;;;;;;53.40;26.33;;;;;;;;;;5026545;28;20046;-80
2023/04/16 07:51:18;;;;;;;70.33;33.70;;;;;;;;;;5036383;28;20049;-80
2023/04/16 07:53:46;;;;;;;69.40;32.50;;;;;;;;;;5043320;28;20030;-81
2023/04/16 07:56:12;;;;;;;79.73;36.47;;;;;;;;;;5044077;28;20042;-78
2023/04/16 07:58:38;;;;;;;78.30;37.23;;;;;;;;;;5027871;28;20042;-78
2023/04/16 08:01:06;;;;;;;87.00;40.53;;;;;;;;;;5029720;28;20021;-80
2023/04/16 08:03:32;;;;;;;90.27;41.67;;;;;;;;;;5026009;28;20046;-81
2023/04/16 08:06:01;;;;;;;83.30;42.47;;;;;;;;;;5044261;28;20033;-79
2023/04/16 08:08:31;;;;;;;89.53;42.37;;;;;;;;;;5031883;28;20098;-78
2023/04/16 08:10:58;;;;;;;77.63;39.70;;;;;;;;;;5028113;28;20053;-78
2023/04/16 08:13:25;;;;;;;81.47;40.23;;;;;;;;;;5031918;28;20025;-79
2023/04/16 08:15:51;;;;;;;85.70;40.23;;;;;;;;;;5027449;28;20041;-79
2023/04/16 08:18:19;;;;;;;88.73;41.87;;;;;;;;;;5032689;28;20097;-81
2023/04/16 08:20:47;;;;;;;79.00;41.80;;;;;;;;;;5026434;28;20030;-78
2023/04/16 08:23:16;;;;;;;80.70;40.40;;;;;;;;;;5026404;28;20022;-79
2023/04/16 08:25:42;;;;;;;83.13;43.20;;;;;;;;;;5042669;28;20098;-79
2023/04/16 08:28:08;;;;;;;88.03;44.23;;;;;;;;;;5027894;28;20034;-77
2023/04/16 08:30:36;;;;;;;81.43;42.93;;;;;;;;;;5028331;28;20069;-78
2023/04/16 08:33:12;;;;;;;;;;;;;;;;;;;;;
2023/04/16 08:35:42;;;;;;;73.77;39.40;;;;;;;;;;5024825;28;20037;-79
2023/04/16 08:38:08;;;;;;;74.80;39.47;;;;;;;;;;5026973;28;20052;-78
2023/04/16 08:40:38;;;;;;;61.40;34.67;;;;;;;;;;5043390;28;20022;-78
2023/04/16 08:43:12;;;;;;;63.73;36.03;;;;;;;;;;5026864;28;20033;-78
2023/04/16 08:45:41;;;;;;;64.03;36.60;;;;;;;;;;5029036;28;20046;-78
2023/04/16 08:48:07;;;;;;;62.93;36.30;;;;;;;;;;5027702;28;20034;-78
2023/04/16 08:50:34;;;;;;;59.53;35.33;;;;;;;;;;5026755;28;20032;-78
2023/04/16 08:53:04;;;;;;;65.40;34.43;;;;;;;;;;5027455;28;20030;-78
2023/04/16 08:55:33;;;;;;;58.67;32.77;;;;;;;;;;5027019;28;20025;-79
2023/04/16 08:58:00;;;;;;;60.03;35.33;;;;;;;;;;5027215;28;20026;-81
2023/04/16 09:00:31;;;;;;;54.87;31.07;;;;;;;;;;5043433;28;20061;-78
2023/04/16 09:02:58;;;;;;;51.38;32.03;;;;;;;;;;5030640;28;20036;-78
2023/04/16 09:05:25;;;;;;;60.50;32.97;;;;;;;;;;5026895;28;20037;-81
2023/04/16 09:07:51;;;;;;;58.53;34.63;;;;;;;;;;5026402;28;20133;-80
2023/04/16 09:10:18;;;;;;;58.37;33.23;;;;;;;;;;5025986;28;20034;-80
2023/04/16 09:12:44;;;;;;;59.23;36.40;;;;;;;;;;4990670;28;20152;-80
2023/04/16 09:15:13;;;;;;;62.23;37.90;;;;;;;;;;5007528;28;20045;-78
2023/04/16 09:17:42;;;;;;;57.73;35.93;;;;;;;;;;5007100;28;20018;-79
2023/04/16 09:20:09;;;;;;;58.10;35.53;;;;;;;;;;5006921;28;20019;-78
2023/04/16 09:22:39;;;;;;;59.03;36.10;;;;;;;;;;5004662;28;20095;-80
2023/04/16 09:25:05;;;;;;;56.10;35.87;;;;;;;;;;4997355;28;20053;-80
2023/04/16 09:27:31;;;;;;;52.03;35.50;;;;;;;;;;4996646;28;20006;-80
2023/04/16 09:29:58;;;;;;;59.90;35.00;;;;;;;;;;5007263;28;20061;-80
2023/04/16 09:32:26;;;;;;;56.63;32.23;;;;;;;;;;5007496;28;20037;-78
2023/04/16 09:34:56;;;;;;;50.67;32.57;;;;;;;;;;4991190;28;20022;-80
2023/04/16 09:37:22;;;;;;;47.07;30.47;;;;;;;;;;4991907;28;20034;-79
2023/04/16 09:40:00;;;;;;;51.00;32.03;;;;;;;;;;4992024;28;20034;-80
2023/04/16 09:42:32;;;;;;;45.13;28.77;;;;;;;;;;5006588;28;20088;-80
2023/04/16 09:44:59;;;;;;;51.95;31.05;;;;;;;;;;4989059;28;20018;-78
2023/04/16 09:47:28;;;;;;;45.37;30.70;;;;;;;;;;5007559;28;20026;-78
2023/04/16 09:49:58;;;;;;;42.07;28.47;;;;;;;;;;5008543;28;20011;-81
2023/04/16 09:52:24;;;;;;;40.57;27.97;;;;;;;;;;4991127;28;20026;-78
2023/04/16 09:54:51;;;;;;;39.90;26.80;;;;;;;;;;4989805;28;20019;-78
2023/04/16 09:57:19;;;;;;;40.47;27.53;;;;;;;;;;5004414;28;20128;-78
2023/04/16 09:59:46;;;;;;;42.50;27.67;;;;;;;;;;5005666;28;20015;-81
2023/04/16 10:02:14;;;;;;;43.40;28.13;;;;;;;;;;4991231;28;20022;-79
2023/04/16 10:04:53;;;;;;;39.53;26.50;;;;;;;;;;5005267;28;20030;-79
2023/04/16 10:07:19;;;;;;;37.97;25.83;;;;;;;;;;5005138;28;20023;-78
2023/04/16 10:09:49;;;;;;;38.20;25.63;;;;;;;;;;5008638;28;20049;-78
2023/04/16 10:12:15;;;;;;;36.13;26.17;;;;;;;;;;5024812;28;20037;-78
2023/04/16 10:14:42;;;;;;;42.07;26.10;;;;;;;;;;5027800;28;20022;-78
2023/04/16 10:17:08;;;;;;;40.10;25.97;;;;;;;;;;5027201;28;20054;-79
2023/04/16 10:19:37;;;;;;;40.60;27.63;;;;;;;;;;5042490;28;20031;-78
2023/04/16 10:22:03;;;;;;;42.40;27.73;;;;;;;;;;5028342;28;20093;-78
2023/04/16 10:24:33;;;;;;;44.60;28.47;;;;;;;;;;5026673;28;20019;-77
2023/04/16 10:27:02;;;;;;;41.60;27.90;;;;;;;;;;5029123;28;20048;-78
2023/04/16 10:29:31;;;;;;;43.23;26.47;;;;;;;;;;5025673;28;20017;-78
2023/04/16 10:32:01;;;;;;;40.60;27.07;;;;;;;;;;5032880;28;20030;-78
2023/04/16 10:34:28;;;;;;;42.07;28.80;;;;;;;;;;5043037;28;20237;-78
2023/04/16 10:36:57;;;;;;;41.60;28.23;;;;;;;;;;5026500;28;20061;-77
2023/04/16 10:39:27;;;;;;;46.87;30.67;;;;;;;;;;5029104;28;20026;-79
2023/04/16 10:42:26;;;;;;;41.40;29.57;;;;;;;;;;5047360;28;20317;-80
2023/04/16 10:44:52;;;;;;;43.03;29.37;;;;;;;;;;5050464;28;20093;-80
2023/04/16 10:47:18;;;;;;;46.93;30.40;;;;;;;;;;5044739;28;20041;-79
2023/04/16 10:49:47;;;;;;;41.93;27.63;;;;;;;;;;5032416;28;20032;-80
2023/04/16 10:52:16;;;;;;;46.47;28.53;;;;;;;;;;5031768;28;20034;-79
2023/04/16 10:54:42;;;;;;;43.23;29.53;;;;;;;;;;5035191;28;20034;-79
2023/04/16 10:57:09;;;;;;;42.03;29.10;;;;;;;;;;5030815;28;20046;-79
2023/04/16 10:59:36;;;;;;;44.73;28.77;;;;;;;;;;5031423;28;20175;-79
2023/04/16 11:02:12;;;;;;;46.43;29.80;;;;;;;;;;5041088;28;20065;-79
2023/04/16 11:04:41;;;;;;;41.77;29.77;;;;;;;;;;5028906;28;20018;-80
2023/04/16 11:07:12;;;;;;;39.93;27.70;;;;;;;;;;5046989;28;20022;-79
2023/04/16 11:09:53;;;;;;;46.47;29.90;;;;;;;;;;5031092;28;20042;-79
2023/04/16 11:12:23;;;;;;;44.70;30.17;;;;;;;;;;5046791;28;20054;-78
2023/04/16 11:14:52;;;;;;;44.77;30.93;;;;;;;;;;5031192;28;20034;-80
2023/04/16 11:17:22;;;;;;;40.93;27.53;;;;;;;;;;5031054;28;20038;-79
2023/04/16 11:19:48;;;;;;;42.33;27.97;;;;;;;;;;5048258;28;20034;-79
2023/04/16 11:22:16;;;;;;;40.80;27.60;;;;;;;;;;5028015;28;20030;-78
2023/04/16 11:24:45;;;;;;;39.77;27.67;;;;;;;;;;5038671;28;20026;-78
2023/04/16 11:27:14;;;;;;;40.10;26.57;;;;;;;;;;5045775;28;20055;-80
2023/04/16 11:29:43;;;;;;;36.07;26.40;;;;;;;;;;5046398;28;20039;-79
2023/04/16 11:32:09;;;;;;;39.63;27.87;;;;;;;;;;5040561;28;20010;-78
2023/04/16 11:34:43;;;;;;;39.10;28.63;;;;;;;;;;5030616;28;20030;-79
2023/04/16 11:37:11;;;;;;;39.67;27.30;;;;;;;;;;5034720;28;20022;-79
2023/04/16 11:39:47;;;;;;;41.93;27.43;;;;;;;;;;5027981;28;20022;-79
2023/04/16 11:42:18;;;;;;;41.77;28.67;;;;;;;;;;5030103;28;20015;-79
2023/04/16 11:44:44;;;;;;;37.63;28.03;;;;;;;;;;5028974;28;20049;-78
2023/04/16 11:47:15;;;;;;;39.53;27.43;;;;;;;;;;5029949;28;20018;-79
2023/04/16 11:49:43;;;;;;;37.60;28.63;;;;;;;;;;5030647;28;20014;-79
2023/04/16 11:52:11;;;;;;;40.60;27.23;;;;;;;;;;5039126;28;20022;-78
2023/04/16 11:54:41;;;;;;;39.37;26.97;;;;;;;;;;5029921;28;20196;-78
2023/04/16 11:57:07;;;;;;;41.37;28.70;;;;;;;;;;5027603;28;20073;-80
2023/04/16 11:59:33;;;;;;;43.50;28.20;;;;;;;;;;5044634;28;20045;-79
2023/04/16 12:01:59;;;;;;;39.47;28.13;;;;;;;;;;5047109;28;20026;-80
2023/04/16 12:04:26;;;;;;;40.07;26.93;;;;;;;;;;5028377;28;20022;-80
2023/04/16 12:07:12;;;;;;;38.10;26.70;;;;;;;;;;5031396;28;20040;-79
2023/04/16 12:09:38;;;;;;;34.63;25.03;;;;;;;;;;5031525;28;20030;-79
2023/04/16 12:12:05;;;;;;;40.63;26.83;;;;;;;;;;5014872;28;20027;-79
2023/04/16 12:14:33;;;;;;;40.50;27.50;;;;;;;;;;4994957;28;20019;-79
2023/04/16 12:17:32;;;;;;;38.63;27.20;;;;;;;;;;5009145;28;20043;-80
2023/04/16 12:19:59;;;;;;;36.10;25.83;;;;;;;;;;4999619;28;20053;-79
2023/04/16 12:22:31;;;;;;;38.03;27.63;;;;;;;;;;5012639;28;20028;-79
2023/04/16 12:25:06;;;;;;;40.45;26.08;;;;;;;;;;5009348;28;20042;-79
2023/04/16 12:27:46;;;;;;;39.57;27.37;;;;;;;;;;5008378;28;20042;-80
2023/04/16 12:30:12;;;;;;;34.73;24.97;;;;;;;;;;4992542;28;20014;-80
2023/04/16 12:32:40;;;;;;;35.23;25.10;;;;;;;;;;5009020;28;20034;-80
2023/04/16 12:35:07;;;;;;;35.57;24.47;;;;;;;;;;5008135;28;20022;-80
2023/04/16 12:37:34;;;;;;;33.53;23.77;;;;;;;;;;5008253;28;20038;-80
2023/04/16 12:40:06;;;;;;;31.50;22.33;;;;;;;;;;5008601;28;20031;-80
2023/04/16 12:42:35;;;;;;;32.67;23.07;;;;;;;;;;5007053;28;20035;-79
2023/04/16 12:45:02;;;;;;;30.20;22.60;;;;;;;;;;4990909;28;20030;-80
2023/04/16 12:47:28;;;;;;;30.90;22.70;;;;;;;;;;4995084;28;20111;-80
2023/04/16 12:49:57;;;;;;;25.47;19.83;;;;;;;;;;4998737;28;20042;-80
2023/04/16 12:52:24;;;;;;;25.70;19.13;;;;;;;;;;4993642;28;20056;-80
2023/04/16 12:54:59;;;;;;;26.53;18.87;;;;;;;;;;5007180;28;20031;-80
2023/04/16 12:57:32;;;;;;;24.27;17.67;;;;;;;;;;5005173;28;20030;-80
2023/04/16 12:59:58;;;;;;;27.80;20.07;;;;;;;;;;5006193;28;20038;-79
2023/04/16 13:02:25;;;;;;;30.23;21.63;;;;;;;;;;5006087;28;20046;-80
2023/04/16 13:04:56;;;;;;;30.77;22.70;;;;;;;;;;5008604;28;20060;-79
2023/04/16 13:07:23;;;;;;;31.53;20.33;;;;;;;;;;5005475;28;20023;-79
2023/04/16 13:09:51;;;;;;;25.73;19.50;;;;;;;;;;4989830;28;20018;-79
2023/04/16 13:12:21;;;;;;;24.47;19.23;;;;;;;;;;5036107;28;20026;-79
2023/04/16 13:14:55;;;;;;;27.20;18.20;;;;;;;;;;5024731;28;20068;-79
2023/04/16 13:17:28;;;;;;;23.33;16.53;;;;;;;;;;5025137;28;20026;-80
2023/04/16 13:19:54;;;;;;;19.58;15.32;;;;;;;;;;5026205;28;20030;-78
2023/04/16 13:22:33;;;;;;;;;;;;;;;;;;;;;
2023/04/16 13:24:59;;;;;;;19.23;14.63;;;;;;;;;;5020246;28;20042;-78
2023/04/16 13:27:30;;;;;;;20.53;14.80;;;;;;;;;;5037360;28;20053;-78
2023/04/16 13:30:07;;;;;;;16.95;13.98;;;;;;;;;;5027240;28;20094;-78
2023/04/16 13:32:36;;;;;;;14.83;12.40;;;;;;;;;;5030804;28;20030;-77
2023/04/16 13:35:18;;;;;;;17.97;13.33;;;;;;;;;;5023156;28;20014;-77
2023/04/16 13:37:53;;;;;;;16.02;13.27;;;;;;;;;;5030241;28;20101;-77
2023/04/16 13:40:24;;;;;;;17.73;12.77;;;;;;;;;;5041706;28;20049;-77
2023/04/16 13:42:52;;;;;;;15.43;12.87;;;;;;;;;;5022544;28;20267;-78
2023/04/16 13:45:30;;;;;;;16.07;13.07;;;;;;;;;;5027698;28;20046;-78
2023/04/16 13:47:58;;;;;;;19.13;13.83;;;;;;;;;;5041607;28;20085;-77
2023/04/16 13:50:30;;;;;;;17.83;14.37;;;;;;;;;;5040279;28;20014;-77
2023/04/16 13:53:06;;;;;;;16.63;14.23;;;;;;;;;;5042579;28;20014;-77
2023/04/16 13:55:35;;;;;;;14.83;13.00;;;;;;;;;;5023836;28;20014;-77
2023/04/16 13:58:10;;;;;;;16.40;13.63;;;;;;;;;;5041091;28;20026;-77
2023/04/16 14:00:40;;;;;;;16.93;13.43;;;;;;;;;;5023384;28;20014;-77
2023/04/16 14:03:14;;;;;;;16.23;12.83;;;;;;;;;;5028813;28;20033;-79
2023/04/16 14:05:40;;;;;;;15.77;12.50;;;;;;;;;;5023409;28;20034;-77
2023/04/16 14:08:16;;;;;;;;;;;;;;;;;;;;;
2023/04/16 14:10:47;;;;;;;17.23;13.03;;;;;;;;;;5018691;28;20218;-78
2023/04/16 14:13:18;;;;;;;16.43;13.47;;;;;;;;;;5007329;28;20192;-78
2023/04/16 14:15:44;;;;;;;16.40;13.60;;;;;;;;;;4993348;28;21036;-77
2023/04/16 14:18:21;;;;;;;16.30;13.37;;;;;;;;;;4991934;28;20022;-79
2023/04/16 14:20:57;;;;;;;19.27;12.57;;;;;;;;;;4990953;28;20014;-78
2023/04/16 14:23:23;;;;;;;15.90;12.67;;;;;;;;;;4997672;28;20053;-78
2023/04/16 14:25:51;;;;;;;14.17;12.60;;;;;;;;;;5006883;28;20042;-78